sensor_id;sensor_type;location;lat;lon;timestamp;temperature;humidity
22290;DHT22;11313;50.116;8.424;2023-05-10T00:00:11;23.60;50.80
22290;DHT22;11313;50.116;8.424;2023-05-10T00:02:36;23.60;50.80
22290;DHT22;11313;50.116;8.424;2023-05-10T00:05:02;23.60;50.80
22290;DHT22;11313;50.116;8.424;2023-05-10T00:07:27;23.60;50.80
22290;DHT22;11313;50.116;8.424;2023-05-10T00:09:53;23.60;50.80
22290;DHT22;11313;50.116;8.424;2023-05-10T00:12:18;23.60;50.80
22290;DHT22;11313;50.116;8.424;2023-05-10T00:14:44;23.60;50.80
22290;DHT22;11313;50.116;8.424;2023-05-10T00:17:10;23.60;50.80
22290;DHT22;11313;50.116;8.424;2023-05-10T00:19:35;23.60;50.80
22290;DHT22;11313;50.116;8.424;2023-05-10T00:22:01;23.60;50.80
22290;DHT22;11313;50.116;8.424;2023-05-10T00:24:26;23.60;50.80
22290;DHT22;11313;50.116;8.424;2023-05-10T00:26:52;23.60;50.80
22290;DHT22;11313;50.116;8.424;2023-05-10T00:29:17;23.60;50.80
22290;DHT22;11313;50.116;8.424;2023-05-10T00:31:43;23.60;50.80
22290;DHT22;11313;50.116;8.424;2023-05-10T00:34:09;23.60;51.50
22290;DHT22;11313;50.116;8.424;2023-05-10T00:36:34;23.60;50.80
22290;DHT22;11313;50.116;8.424;2023-05-10T00:39:00;23.60;50.80
22290;DHT22;11313;50.116;8.424;2023-05-10T00:41:25;23.60;50.80
22290;DHT22;11313;50.116;8.424;2023-05-10T00:43:51;23.60;50.80
22290;DHT22;11313;50.116;8.424;2023-05-10T00:46:16;23.60;50.80
22290;DHT22;11313;50.116;8.424;2023-05-10T00:48:43;23.60;50.80
22290;DHT22;11313;50.116;8.424;2023-05-10T00:51:09;23.60;50.80
22290;DHT22;11313;50.116;8.424;2023-05-10T00:53:35;23.60;50.80
22290;DHT22;11313;50.116;8.424;2023-05-10T00:56:01;23.60;50.80
22290;DHT22;11313;50.116;8.424;2023-05-10T00:58:28;23.60;50.80
22290;DHT22;11313;50.116;8.424;2023-05-10T01:00:55;23.60;50.80
22290;DHT22;11313;50.116;8.424;2023-05-10T01:03:21;23.60;50.80
22290;DHT22;11313;50.116;8.424;2023-05-10T01:05:47;23.60;50.80
22290;DHT22;11313;50.116;8.424;2023-05-10T01:08:12;23.60;50.80
22290;DHT22;11313;50.116;8.424;2023-05-10T01:10:38;23.60;50.80
22290;DHT22;11313;50.116;8.424;2023-05-10T01:13:04;23.60;50.80
22290;DHT22;11313;50.116;8.424;2023-05-10T01:15:30;23.60;50.80
22290;DHT22;11313;50.116;8.424;2023-05-10T01:17:56;23.60;50.80
22290;DHT22;11313;50.116;8.424;2023-05-10T01:20:22;23.60;50.80
22290;DHT22;11313;50.116;8.424;2023-05-10T01:23:10;23.60;50.80
22290;DHT22;11313;50.116;8.424;2023-05-10T01:28:38;23.60;50.90
22290;DHT22;11313;50.116;8.424;2023-05-10T01:34:02;23.60;50.90
22290;DHT22;11313;50.116;8.424;2023-05-10T01:37:20;23.60;50.80
22290;DHT22;11313;50.116;8.424;2023-05-10T01:40:00;23.60;50.90
22290;DHT22;11313;50.116;8.424;2023-05-10T01:42:30;23.60;50.90
22290;DHT22;11313;50.116;8.424;2023-05-10T01:45:18;23.60;50.80
22290;DHT22;11313;50.116;8.424;2023-05-10T01:47:49;23.60;50.90
22290;DHT22;11313;50.116;8.424;2023-05-10T01:50:18;23.60;50.70
22290;DHT22;11313;50.116;8.424;2023-05-10T01:52:49;23.60;50.80
22290;DHT22;11313;50.116;8.424;2023-05-10T01:55:18;23.60;50.80
22290;DHT22;11313;50.116;8.424;2023-05-10T01:57:46;23.60;50.80
22290;DHT22;11313;50.116;8.424;2023-05-10T02:00:14;23.60;50.80
22290;DHT22;11313;50.116;8.424;2023-05-10T02:02:44;23.60;50.80
22290;DHT22;11313;50.116;8.424;2023-05-10T02:05:12;23.60;50.80
22290;DHT22;11313;50.116;8.424;2023-05-10T02:07:39;23.60;50.80
22290;DHT22;11313;50.116;8.424;2023-05-10T09:13:05;23.40;51.10
22290;DHT22;11313;50.116;8.424;2023-05-10T09:15:32;23.40;50.90
22290;DHT22;11313;50.116;8.424;2023-05-10T09:18:00;23.50;51.00
22290;DHT22;11313;50.116;8.424;2023-05-10T09:20:27;23.50;51.00
22290;DHT22;11313;50.116;8.424;2023-05-10T09:22:53;23.50;51.00
22290;DHT22;11313;50.116;8.424;2023-05-10T09:25:19;23.50;51.00
22290;DHT22;11313;50.116;8.424;2023-05-10T09:27:46;23.40;51.00
22290;DHT22;11313;50.116;8.424;2023-05-10T09:30:27;23.40;51.00
22290;DHT22;11313;50.116;8.424;2023-05-10T09:32:53;23.50;51.10
22290;DHT22;11313;50.116;8.424;2023-05-10T09:35:20;23.90;51.20
22290;DHT22;11313;50.116;8.424;2023-05-10T09:37:48;23.50;51.00
22290;DHT22;11313;50.116;8.424;2023-05-10T09:40:19;23.40;51.00
22290;DHT22;11313;50.116;8.424;2023-05-10T09:45:18;23.40;51.00
22290;DHT22;11313;50.116;8.424;2023-05-10T09:47:45;23.50;51.00
22290;DHT22;11313;50.116;8.424;2023-05-10T09:50:11;23.40;51.00
22290;DHT22;11313;50.116;8.424;2023-05-10T09:52:57;23.70;51.10
22290;DHT22;11313;50.116;8.424;2023-05-10T09:55:39;23.50;51.10
22290;DHT22;11313;50.116;8.424;2023-05-10T09:58:05;23.50;51.10
22290;DHT22;11313;50.116;8.424;2023-05-10T10:00:37;23.50;51.00
22290;DHT22;11313;50.116;8.424;2023-05-10T10:03:03;23.50;51.00
22290;DHT22;11313;50.116;8.424;2023-05-10T10:05:33;23.50;51.00
22290;DHT22;11313;50.116;8.424;2023-05-10T10:08:00;23.50;51.00
22290;DHT22;11313;50.116;8.424;2023-05-10T10:10:26;23.50;51.00
22290;DHT22;11313;50.116;8.424;2023-05-10T10:12:53;23.40;50.90
22290;DHT22;11313;50.116;8.424;2023-05-10T10:15:20;23.50;51.00
22290;DHT22;11313;50.116;8.424;2023-05-10T10:17:46;23.50;51.00
22290;DHT22;11313;50.116;8.424;2023-05-10T10:20:13;23.50;51.00
22290;DHT22;11313;50.116;8.424;2023-05-10T10:22:39;23.50;51.00
22290;DHT22;11313;50.116;8.424;2023-05-10T10:25:05;23.50;51.00
22290;DHT22;11313;50.116;8.424;2023-05-10T10:30:27;23.50;51.10
22290;DHT22;11313;50.116;8.424;2023-05-10T10:35:39;23.50;51.00
22290;DHT22;11313;50.116;8.424;2023-05-10T10:38:08;23.50;50.90
22290;DHT22;11313;50.116;8.424;2023-05-10T10:40:34;23.50;51.00
22290;DHT22;11313;50.116;8.424;2023-05-10T10:43:27;23.50;51.60
22290;DHT22;11313;50.116;8.424;2023-05-10T10:46:16;23.40;51.00
22290;DHT22;11313;50.116;8.424;2023-05-10T10:48:51;23.50;51.10
22290;DHT22;11313;50.116;8.424;2023-05-10T10:51:36;23.50;51.00
22290;DHT22;11313;50.116;8.424;2023-05-10T10:54:09;23.50;50.90
22290;DHT22;11313;50.116;8.424;2023-05-10T10:56:35;23.50;51.00
22290;DHT22;11313;50.116;8.424;2023-05-10T10:59:01;23.50;51.00
22290;DHT22;11313;50.116;8.424;2023-05-10T11:01:33;23.50;50.90
22290;DHT22;11313;50.116;8.424;2023-05-10T11:06:35;23.50;51.00
22290;DHT22;11313;50.116;8.424;2023-05-10T11:09:09;23.50;51.00
22290;DHT22;11313;50.116;8.424;2023-05-10T11:11:35;23.50;51.00
22290;DHT22;11313;50.116;8.424;2023-05-10T11:14:06;23.50;50.90
22290;DHT22;11313;50.116;8.424;2023-05-10T11:16:43;23.50;51.00
22290;DHT22;11313;50.116;8.424;2023-05-10T11:19:11;23.50;51.00
22290;DHT22;11313;50.116;8.424;2023-05-10T11:22:11;23.50;50.90
22290;DHT22;11313;50.116;8.424;2023-05-10T11:24:38;23.50;51.00
22290;DHT22;11313;50.116;8.424;2023-05-10T11:27:05;23.50;51.00
22290;DHT22;11313;50.116;8.424;2023-05-10T11:29:30;23.50;50.90
22290;DHT22;11313;50.116;8.424;2023-05-10T11:31:59;23.50;50.90
22290;DHT22;11313;50.116;8.424;2023-05-10T11:34:25;23.50;50.90
22290;DHT22;11313;50.116;8.424;2023-05-10T11:36:53;23.50;50.90
22290;DHT22;11313;50.116;8.424;2023-05-10T11:39:20;23.50;50.90
22290;DHT22;11313;50.116;8.424;2023-05-10T11:41:49;23.50;50.90
22290;DHT22;11313;50.116;8.424;2023-05-10T11:44:15;23.50;50.90
22290;DHT22;11313;50.116;8.424;2023-05-10T11:46:41;23.50;50.90
22290;DHT22;11313;50.116;8.424;2023-05-10T11:49:07;23.50;50.90
22290;DHT22;11313;50.116;8.424;2023-05-10T11:51:36;23.40;50.90
22290;DHT22;11313;50.116;8.424;2023-05-10T11:54:08;23.50;50.90
22290;DHT22;11313;50.116;8.424;2023-05-10T11:56:34;23.50;50.90
22290;DHT22;11313;50.116;8.424;2023-05-10T11:59:00;23.50;50.90
22290;DHT22;11313;50.116;8.424;2023-05-10T12:01:27;23.50;50.90
22290;DHT22;11313;50.116;8.424;2023-05-10T12:03:55;23.50;50.90
22290;DHT22;11313;50.116;8.424;2023-05-10T12:06:26;23.50;50.90
22290;DHT22;11313;50.116;8.424;2023-05-10T12:08:52;23.50;50.90
22290;DHT22;11313;50.116;8.424;2023-05-10T12:11:18;23.50;50.90
22290;DHT22;11313;50.116;8.424;2023-05-10T12:13:46;23.50;50.90
22290;DHT22;11313;50.116;8.424;2023-05-10T12:16:17;23.50;50.90
22290;DHT22;11313;50.116;8.424;2023-05-10T12:18:43;23.50;50.90
22290;DHT22;11313;50.116;8.424;2023-05-10T12:21:10;23.50;50.90
22290;DHT22;11313;50.116;8.424;2023-05-10T12:23:37;23.50;50.90
22290;DHT22;11313;50.116;8.424;2023-05-10T12:26:03;23.50;50.90
22290;DHT22;11313;50.116;8.424;2023-05-10T12:28:32;23.50;50.90
22290;DHT22;11313;50.116;8.424;2023-05-10T12:31:02;23.50;50.90
22290;DHT22;11313;50.116;8.424;2023-05-10T12:33:35;23.50;50.90
22290;DHT22;11313;50.116;8.424;2023-05-10T12:36:02;23.50;51.00
22290;DHT22;11313;50.116;8.424;2023-05-10T12:38:34;23.50;50.90
22290;DHT22;11313;50.116;8.424;2023-05-10T12:41:03;23.50;51.00
22290;DHT22;11313;50.116;8.424;2023-05-10T12:43:29;23.50;50.90
22290;DHT22;11313;50.116;8.424;2023-05-10T12:45:54;23.50;50.90
22290;DHT22;11313;50.116;8.424;2023-05-10T12:48:20;23.50;50.90
22290;DHT22;11313;50.116;8.424;2023-05-10T12:50:46;23.50;50.90
22290;DHT22;11313;50.116;8.424;2023-05-10T12:53:15;23.50;50.90
22290;DHT22;11313;50.116;8.424;2023-05-10T12:55:42;23.50;50.90
22290;DHT22;11313;50.116;8.424;2023-05-10T12:58:07;23.50;50.90
22290;DHT22;11313;50.116;8.424;2023-05-10T13:00:33;23.50;50.90
22290;DHT22;11313;50.116;8.424;2023-05-10T13:02:58;23.50;50.90
22290;DHT22;11313;50.116;8.424;2023-05-10T13:05:24;23.50;50.90
22290;DHT22;11313;50.116;8.424;2023-05-10T13:07:50;23.50;50.90
22290;DHT22;11313;50.116;8.424;2023-05-10T13:10:16;23.50;50.90
22290;DHT22;11313;50.116;8.424;2023-05-10T13:12:41;23.50;50.90
22290;DHT22;11313;50.116;8.424;2023-05-10T13:15:07;23.50;50.90
22290;DHT22;11313;50.116;8.424;2023-05-10T13:17:33;23.50;50.90
22290;DHT22;11313;50.116;8.424;2023-05-10T13:19:58;23.50;50.90
22290;DHT22;11313;50.116;8.424;2023-05-10T13:22:23;23.50;50.80
22290;DHT22;11313;50.116;8.424;2023-05-10T13:24:49;23.50;50.90
22290;DHT22;11313;50.116;8.424;2023-05-10T13:27:14;23.50;50.90
22290;DHT22;11313;50.116;8.424;2023-05-10T13:29:40;23.50;50.90
22290;DHT22;11313;50.116;8.424;2023-05-10T13:32:07;23.50;50.90
22290;DHT22;11313;50.116;8.424;2023-05-10T13:34:32;23.50;50.80
22290;DHT22;11313;50.116;8.424;2023-05-10T13:36:58;23.50;50.90
22290;DHT22;11313;50.116;8.424;2023-05-10T13:39:23;23.50;50.80
22290;DHT22;11313;50.116;8.424;2023-05-10T13:41:49;23.50;50.80
22290;DHT22;11313;50.116;8.424;2023-05-10T13:44:14;23.50;50.80
22290;DHT22;11313;50.116;8.424;2023-05-10T13:46:41;23.50;50.80
22290;DHT22;11313;50.116;8.424;2023-05-10T13:49:09;23.50;50.80
22290;DHT22;11313;50.116;8.424;2023-05-10T13:51:35;23.50;50.80
22290;DHT22;11313;50.116;8.424;2023-05-10T13:54:04;23.50;50.80
22290;DHT22;11313;50.116;8.424;2023-05-10T13:56:30;23.50;50.80
22290;DHT22;11313;50.116;8.424;2023-05-10T13:58:56;23.50;50.80
22290;DHT22;11313;50.116;8.424;2023-05-10T14:01:23;23.50;50.80
22290;DHT22;11313;50.116;8.424;2023-05-10T14:03:49;23.50;50.80
22290;DHT22;11313;50.116;8.424;2023-05-10T14:06:14;23.50;50.80
22290;DHT22;11313;50.116;8.424;2023-05-10T14:08:40;23.50;50.90
22290;DHT22;11313;50.116;8.424;2023-05-10T14:11:06;23.50;50.90
22290;DHT22;11313;50.116;8.424;2023-05-10T14:13:31;23.50;50.90
22290;DHT22;11313;50.116;8.424;2023-05-10T14:15:57;23.40;50.80
22290;DHT22;11313;50.116;8.424;2023-05-10T14:18:24;23.50;50.80
22290;DHT22;11313;50.116;8.424;2023-05-10T14:20:49;23.50;50.80
22290;DHT22;11313;50.116;8.424;2023-05-10T14:23:15;23.50;50.80
22290;DHT22;11313;50.116;8.424;2023-05-10T14:25:40;23.50;50.80
22290;DHT22;11313;50.116;8.424;2023-05-10T14:28:06;23.50;50.80
22290;DHT22;11313;50.116;8.424;2023-05-10T14:30:32;23.50;50.90
22290;DHT22;11313;50.116;8.424;2023-05-10T14:32:59;23.50;50.80
22290;DHT22;11313;50.116;8.424;2023-05-10T14:35:26;23.50;50.80
22290;DHT22;11313;50.116;8.424;2023-05-10T14:37:52;23.50;50.80
22290;DHT22;11313;50.116;8.424;2023-05-10T14:40:17;23.50;50.80
22290;DHT22;11313;50.116;8.424;2023-05-10T14:42:44;23.50;50.80
22290;DHT22;11313;50.116;8.424;2023-05-10T14:45:10;23.50;50.80
22290;DHT22;11313;50.116;8.424;2023-05-10T14:47:36;23.50;50.80
22290;DHT22;11313;50.116;8.424;2023-05-10T14:50:01;23.50;50.80
22290;DHT22;11313;50.116;8.424;2023-05-10T14:52:27;23.50;50.80
22290;DHT22;11313;50.116;8.424;2023-05-10T14:54:53;23.50;50.80
22290;DHT22;11313;50.116;8.424;2023-05-10T14:57:18;23.50;50.80
22290;DHT22;11313;50.116;8.424;2023-05-10T14:59:44;23.60;50.80
22290;DHT22;11313;50.116;8.424;2023-05-10T15:02:09;23.60;50.80
22290;DHT22;11313;50.116;8.424;2023-05-10T15:04:35;23.60;50.90
22290;DHT22;11313;50.116;8.424;2023-05-10T15:07:01;23.60;50.80
22290;DHT22;11313;50.116;8.424;2023-05-10T15:09:26;23.60;51.50
22290;DHT22;11313;50.116;8.424;2023-05-10T15:11:53;23.60;50.80
22290;DHT22;11313;50.116;8.424;2023-05-10T15:14:18;23.50;50.80
22290;DHT22;11313;50.116;8.424;2023-05-10T15:16:44;23.50;50.80
22290;DHT22;11313;50.116;8.424;2023-05-10T15:19:09;23.50;50.80
22290;DHT22;11313;50.116;8.424;2023-05-10T15:21:35;23.50;50.80
22290;DHT22;11313;50.116;8.424;2023-05-10T15:24:05;23.50;50.80
22290;DHT22;11313;50.116;8.424;2023-05-10T15:26:30;23.60;50.80
22290;DHT22;11313;50.116;8.424;2023-05-10T15:28:56;23.50;50.70
22290;DHT22;11313;50.116;8.424;2023-05-10T15:31:22;23.60;50.80
22290;DHT22;11313;50.116;8.424;2023-05-10T15:33:47;23.50;50.80
22290;DHT22;11313;50.116;8.424;2023-05-10T15:36:13;23.60;50.80
22290;DHT22;11313;50.116;8.424;2023-05-10T15:38:38;23.60;50.80
22290;DHT22;11313;50.116;8.424;2023-05-10T15:41:04;23.60;50.80
22290;DHT22;11313;50.116;8.424;2023-05-10T15:43:29;23.50;50.80
22290;DHT22;11313;50.116;8.424;2023-05-10T15:45:55;23.60;50.90
22290;DHT22;11313;50.116;8.424;2023-05-10T15:48:20;23.60;50.80
22290;DHT22;11313;50.116;8.424;2023-05-10T15:50:46;23.50;50.80
22290;DHT22;11313;50.116;8.424;2023-05-10T15:53:11;23.60;50.90
22290;DHT22;11313;50.116;8.424;2023-05-10T15:55:37;23.50;50.80
22290;DHT22;11313;50.116;8.424;2023-05-10T15:58:02;23.60;50.90
22290;DHT22;11313;50.116;8.424;2023-05-10T16:00:28;23.50;50.80
22290;DHT22;11313;50.116;8.424;2023-05-10T16:02:54;23.60;50.90
22290;DHT22;11313;50.116;8.424;2023-05-10T16:05:20;23.60;50.90
22290;DHT22;11313;50.116;8.424;2023-05-10T16:07:46;23.50;50.80
22290;DHT22;11313;50.116;8.424;2023-05-10T16:10:11;23.60;50.80
22290;DHT22;11313;50.116;8.424;2023-05-10T16:12:38;23.50;50.80
22290;DHT22;11313;50.116;8.424;2023-05-10T16:15:04;23.60;50.80
22290;DHT22;11313;50.116;8.424;2023-05-10T16:17:29;23.50;50.80
22290;DHT22;11313;50.116;8.424;2023-05-10T16:19:55;23.50;50.80
22290;DHT22;11313;50.116;8.424;2023-05-10T16:22:20;23.50;50.80
22290;DHT22;11313;50.116;8.424;2023-05-10T16:24:46;23.50;50.80
22290;DHT22;11313;50.116;8.424;2023-05-10T16:27:12;23.60;50.80
22290;DHT22;11313;50.116;8.424;2023-05-10T16:29:38;23.50;50.80
22290;DHT22;11313;50.116;8.424;2023-05-10T16:32:03;23.50;50.80
22290;DHT22;11313;50.116;8.424;2023-05-10T16:34:29;23.50;50.70
22290;DHT22;11313;50.116;8.424;2023-05-10T16:36:54;23.50;50.80
22290;DHT22;11313;50.116;8.424;2023-05-10T16:39:20;23.50;50.70
22290;DHT22;11313;50.116;8.424;2023-05-10T16:41:45;23.50;50.70
22290;DHT22;11313;50.116;8.424;2023-05-10T16:44:11;23.50;50.70
22290;DHT22;11313;50.116;8.424;2023-05-10T16:46:36;23.50;50.70
22290;DHT22;11313;50.116;8.424;2023-05-10T16:49:02;23.50;50.70
22290;DHT22;11313;50.116;8.424;2023-05-10T16:51:28;23.50;50.80
22290;DHT22;11313;50.116;8.424;2023-05-10T16:53:54;23.60;50.70
22290;DHT22;11313;50.116;8.424;2023-05-10T16:56:20;23.60;50.70
22290;DHT22;11313;50.116;8.424;2023-05-10T16:58:46;23.60;50.80
22290;DHT22;11313;50.116;8.424;2023-05-10T17:01:14;23.50;50.70
22290;DHT22;11313;50.116;8.424;2023-05-10T17:03:40;23.50;50.70
22290;DHT22;11313;50.116;8.424;2023-05-10T17:06:06;23.50;50.70
22290;DHT22;11313;50.116;8.424;2023-05-10T17:08:32;23.50;50.70
22290;DHT22;11313;50.116;8.424;2023-05-10T17:11:00;23.50;50.70
22290;DHT22;11313;50.116;8.424;2023-05-10T17:13:27;23.50;50.70
22290;DHT22;11313;50.116;8.424;2023-05-10T17:15:53;23.50;50.70
22290;DHT22;11313;50.116;8.424;2023-05-10T17:18:18;23.50;50.70
22290;DHT22;11313;50.116;8.424;2023-05-10T17:20:44;23.50;50.70
22290;DHT22;11313;50.116;8.424;2023-05-10T17:23:10;23.50;50.70
22290;DHT22;11313;50.116;8.424;2023-05-10T17:25:35;23.50;50.60
22290;DHT22;11313;50.116;8.424;2023-05-10T17:28:01;23.50;50.70
22290;DHT22;11313;50.116;8.424;2023-05-10T17:30:27;23.60;50.70
22290;DHT22;11313;50.116;8.424;2023-05-10T17:32:59;23.50;50.60
22290;DHT22;11313;50.116;8.424;2023-05-10T17:35:25;23.50;50.60
22290;DHT22;11313;50.116;8.424;2023-05-10T17:37:50;23.50;50.70
22290;DHT22;11313;50.116;8.424;2023-05-10T17:40:16;23.50;50.60
22290;DHT22;11313;50.116;8.424;2023-05-10T17:42:42;23.50;50.70
22290;DHT22;11313;50.116;8.424;2023-05-10T17:45:08;23.50;50.70
22290;DHT22;11313;50.116;8.424;2023-05-10T17:47:34;23.50;50.70
22290;DHT22;11313;50.116;8.424;2023-05-10T17:49:59;23.50;50.70
22290;DHT22;11313;50.116;8.424;2023-05-10T17:52:25;23.60;50.70
22290;DHT22;11313;50.116;8.424;2023-05-10T17:54:51;23.50;50.70
22290;DHT22;11313;50.116;8.424;2023-05-10T17:57:17;23.60;50.70
22290;DHT22;11313;50.116;8.424;2023-05-10T17:59:43;23.50;50.70
22290;DHT22;11313;50.116;8.424;2023-05-10T18:02:08;23.50;50.70
22290;DHT22;11313;50.116;8.424;2023-05-10T18:04:34;23.50;50.70
22290;DHT22;11313;50.116;8.424;2023-05-10T18:06:59;23.60;50.80
22290;DHT22;11313;50.116;8.424;2023-05-10T18:09:28;23.60;50.80
22290;DHT22;11313;50.116;8.424;2023-05-10T18:11:54;23.50;50.80
22290;DHT22;11313;50.116;8.424;2023-05-10T18:14:20;23.60;50.90
22290;DHT22;11313;50.116;8.424;2023-05-10T18:16:47;23.50;50.80
22290;DHT22;11313;50.116;8.424;2023-05-10T18:19:12;23.50;50.90
22290;DHT22;11313;50.116;8.424;2023-05-10T18:21:38;23.60;50.90
22290;DHT22;11313;50.116;8.424;2023-05-10T18:24:04;23.50;50.90
22290;DHT22;11313;50.116;8.424;2023-05-10T18:26:30;23.50;50.90
22290;DHT22;11313;50.116;8.424;2023-05-10T18:28:55;23.50;50.90
22290;DHT22;11313;50.116;8.424;2023-05-10T18:31:21;23.50;50.90
22290;DHT22;11313;50.116;8.424;2023-05-10T18:33:47;23.50;50.80
22290;DHT22;11313;50.116;8.424;2023-05-10T18:36:13;23.50;50.90
22290;DHT22;11313;50.116;8.424;2023-05-10T18:38:38;23.50;50.90
22290;DHT22;11313;50.116;8.424;2023-05-10T18:41:05;23.50;50.90
22290;DHT22;11313;50.116;8.424;2023-05-10T18:43:31;23.50;50.90
22290;DHT22;11313;50.116;8.424;2023-05-10T18:45:58;23.50;50.90
22290;DHT22;11313;50.116;8.424;2023-05-10T18:48:24;23.50;50.90
22290;DHT22;11313;50.116;8.424;2023-05-10T18:50:49;23.50;50.90
22290;DHT22;11313;50.116;8.424;2023-05-10T18:53:15;23.50;50.90
22290;DHT22;11313;50.116;8.424;2023-05-10T18:55:41;23.50;50.90
22290;DHT22;11313;50.116;8.424;2023-05-10T18:58:06;23.50;50.90
22290;DHT22;11313;50.116;8.424;2023-05-10T19:00:32;23.50;50.90
22290;DHT22;11313;50.116;8.424;2023-05-10T19:02:57;23.50;50.90
22290;DHT22;11313;50.116;8.424;2023-05-10T19:05:22;23.50;50.90
22290;DHT22;11313;50.116;8.424;2023-05-10T19:07:54;23.50;50.90
22290;DHT22;11313;50.116;8.424;2023-05-10T19:10:20;23.50;50.90
22290;DHT22;11313;50.116;8.424;2023-05-10T19:12:46;23.50;50.90
22290;DHT22;11313;50.116;8.424;2023-05-10T19:15:11;23.50;50.90
22290;DHT22;11313;50.116;8.424;2023-05-10T19:17:37;23.50;50.90
22290;DHT22;11313;50.116;8.424;2023-05-10T19:20:04;23.50;50.90
22290;DHT22;11313;50.116;8.424;2023-05-10T19:22:30;23.50;50.90
22290;DHT22;11313;50.116;8.424;2023-05-10T19:24:55;23.50;50.90
22290;DHT22;11313;50.116;8.424;2023-05-10T19:27:21;23.50;50.90
22290;DHT22;11313;50.116;8.424;2023-05-10T19:29:46;23.50;50.90
22290;DHT22;11313;50.116;8.424;2023-05-10T19:32:12;23.50;50.90
22290;DHT22;11313;50.116;8.424;2023-05-10T19:34:37;23.50;50.90
22290;DHT22;11313;50.116;8.424;2023-05-10T19:37:03;23.50;50.90
22290;DHT22;11313;50.116;8.424;2023-05-10T19:39:28;23.50;50.90
22290;DHT22;11313;50.116;8.424;2023-05-10T19:41:55;23.50;50.90
22290;DHT22;11313;50.116;8.424;2023-05-10T19:44:20;23.50;50.90
22290;DHT22;11313;50.116;8.424;2023-05-10T19:46:46;23.50;50.90
22290;DHT22;11313;50.116;8.424;2023-05-10T19:49:11;23.50;50.90
22290;DHT22;11313;50.116;8.424;2023-05-10T19:51:37;23.50;50.90
22290;DHT22;11313;50.116;8.424;2023-05-10T19:54:02;23.50;50.80
22290;DHT22;11313;50.116;8.424;2023-05-10T19:56:28;23.50;50.80
22290;DHT22;11313;50.116;8.424;2023-05-10T19:58:54;23.50;50.80
22290;DHT22;11313;50.116;8.424;2023-05-10T20:01:19;23.50;50.90
22290;DHT22;11313;50.116;8.424;2023-05-10T20:03:45;23.50;50.80
22290;DHT22;11313;50.116;8.424;2023-05-10T20:06:10;23.50;50.80
22290;DHT22;11313;50.116;8.424;2023-05-10T20:08:36;23.50;50.80
22290;DHT22;11313;50.116;8.424;2023-05-10T20:11:02;23.50;50.80
22290;DHT22;11313;50.116;8.424;2023-05-10T20:13:28;23.50;50.80
22290;DHT22;11313;50.116;8.424;2023-05-10T20:15:55;23.50;50.80
22290;DHT22;11313;50.116;8.424;2023-05-10T20:18:20;23.50;50.80
22290;DHT22;11313;50.116;8.424;2023-05-10T20:20:46;23.50;50.70
22290;DHT22;11313;50.116;8.424;2023-05-10T20:23:12;23.50;50.80
22290;DHT22;11313;50.116;8.424;2023-05-10T20:25:39;23.50;50.70
22290;DHT22;11313;50.116;8.424;2023-05-10T20:28:04;23.50;50.70
22290;DHT22;11313;50.116;8.424;2023-05-10T20:30:32;23.50;50.70
22290;DHT22;11313;50.116;8.424;2023-05-10T20:32:57;23.50;50.80
22290;DHT22;11313;50.116;8.424;2023-05-10T20:35:23;23.50;50.70
22290;DHT22;11313;50.116;8.424;2023-05-10T20:37:48;23.50;50.70
22290;DHT22;11313;50.116;8.424;2023-05-10T20:40:14;23.50;50.70
22290;DHT22;11313;50.116;8.424;2023-05-10T20:42:39;23.50;50.70
22290;DHT22;11313;50.116;8.424;2023-05-10T20:45:05;23.50;50.70
22290;DHT22;11313;50.116;8.424;2023-05-10T20:47:31;23.50;50.70
22290;DHT22;11313;50.116;8.424;2023-05-10T20:49:57;23.50;50.70
22290;DHT22;11313;50.116;8.424;2023-05-10T20:52:22;23.50;50.70
22290;DHT22;11313;50.116;8.424;2023-05-10T20:54:48;23.50;50.70
22290;DHT22;11313;50.116;8.424;2023-05-10T20:57:13;23.50;50.70
22290;DHT22;11313;50.116;8.424;2023-05-10T20:59:39;23.30;50.60
22290;DHT22;11313;50.116;8.424;2023-05-10T21:02:04;23.50;50.70
22290;DHT22;11313;50.116;8.424;2023-05-10T21:04:30;23.50;50.70
22290;DHT22;11313;50.116;8.424;2023-05-10T21:06:56;23.50;50.70
22290;DHT22;11313;50.116;8.424;2023-05-10T21:09:21;23.50;50.70
22290;DHT22;11313;50.116;8.424;2023-05-10T21:11:48;23.50;50.70
22290;DHT22;11313;50.116;8.424;2023-05-10T21:14:13;23.50;50.70
22290;DHT22;11313;50.116;8.424;2023-05-10T21:16:39;23.50;50.70
22290;DHT22;11313;50.116;8.424;2023-05-10T21:19:05;23.80;50.80
22290;DHT22;11313;50.116;8.424;2023-05-10T21:21:31;23.50;50.70
22290;DHT22;11313;50.116;8.424;2023-05-10T21:24:00;23.60;50.70
22290;DHT22;11313;50.116;8.424;2023-05-10T21:26:25;23.50;50.70
22290;DHT22;11313;50.116;8.424;2023-05-10T21:28:51;23.20;50.50
22290;DHT22;11313;50.116;8.424;2023-05-10T21:31:17;23.50;50.70
22290;DHT22;11313;50.116;8.424;2023-05-10T21:33:42;23.50;50.70
22290;DHT22;11313;50.116;8.424;2023-05-10T21:36:08;23.50;50.70
22290;DHT22;11313;50.116;8.424;2023-05-10T21:38:33;23.40;50.50
22290;DHT22;11313;50.116;8.424;2023-05-10T21:40:59;23.90;50.80
22290;DHT22;11313;50.116;8.424;2023-05-10T21:43:25;23.40;50.60
22290;DHT22;11313;50.116;8.424;2023-05-10T21:45:50;23.50;50.60
22290;DHT22;11313;50.116;8.424;2023-05-10T21:48:16;23.40;50.60
22290;DHT22;11313;50.116;8.424;2023-05-10T21:50:42;23.60;50.70
22290;DHT22;11313;50.116;8.424;2023-05-10T21:53:08;23.40;50.60
22290;DHT22;11313;50.116;8.424;2023-05-10T21:55:33;23.50;50.70
22290;DHT22;11313;50.116;8.424;2023-05-10T21:57:59;23.60;50.70
22290;DHT22;11313;50.116;8.424;2023-05-10T22:00:24;23.50;50.60
22290;DHT22;11313;50.116;8.424;2023-05-10T22:02:50;23.40;50.50
22290;DHT22;11313;50.116;8.424;2023-05-10T22:05:16;23.30;50.50
22290;DHT22;11313;50.116;8.424;2023-05-10T22:07:41;23.50;50.60
22290;DHT22;11313;50.116;8.424;2023-05-10T22:10:08;23.40;50.50
22290;DHT22;11313;50.116;8.424;2023-05-10T22:12:33;23.50;50.70
22290;DHT22;11313;50.116;8.424;2023-05-10T22:14:59;23.40;50.60
22290;DHT22;11313;50.116;8.424;2023-05-10T22:17:24;23.40;50.60
22290;DHT22;11313;50.116;8.424;2023-05-10T22:19:50;23.50;50.60
22290;DHT22;11313;50.116;8.424;2023-05-10T22:22:16;23.40;50.50
22290;DHT22;11313;50.116;8.424;2023-05-10T22:24:41;23.40;50.50
22290;DHT22;11313;50.116;8.424;2023-05-10T22:27:07;23.40;50.50
22290;DHT22;11313;50.116;8.424;2023-05-10T22:29:33;23.40;50.50
22290;DHT22;11313;50.116;8.424;2023-05-10T22:31:58;23.40;50.50
22290;DHT22;11313;50.116;8.424;2023-05-10T22:34:29;23.40;50.60
22290;DHT22;11313;50.116;8.424;2023-05-10T22:36:54;23.40;50.50
22290;DHT22;11313;50.116;8.424;2023-05-10T22:39:20;23.40;50.60
22290;DHT22;11313;50.116;8.424;2023-05-10T22:41:45;23.40;50.50
22290;DHT22;11313;50.116;8.424;2023-05-10T22:44:11;23.40;50.50
22290;DHT22;11313;50.116;8.424;2023-05-10T22:46:37;23.40;50.50